createdAt,value
2018-08-17T00:01:44.450Z,21.51
2018-08-17T00:04:13.417Z,21.39
2018-08-17T00:06:42.351Z,21.35
2018-08-17T00:09:12.562Z,21.37
2018-08-17T00:11:41.506Z,21.36
2018-08-17T00:14:10.420Z,21.33
2018-08-17T00:16:39.594Z,21.42
2018-08-17T00:19:08.504Z,21.45
2018-08-17T00:21:37.525Z,21.45
2018-08-17T00:24:06.447Z,21.44
2018-08-17T00:26:35.310Z,21.44
2018-08-17T00:29:04.170Z,21.41
2018-08-17T00:31:33.101Z,21.46
2018-08-17T00:34:03.088Z,21.42
2018-08-17T00:36:32.000Z,21.35
2018-08-17T00:39:00.949Z,21.39
2018-08-17T00:41:29.865Z,21.35
2018-08-17T00:43:58.790Z,21.33
2018-08-17T00:46:27.721Z,21.26
2018-08-17T00:48:56.596Z,21.34
2018-08-17T00:51:26.352Z,21.33
2018-08-17T00:53:55.219Z,21.38
2018-08-17T00:56:24.115Z,21.28
2018-08-17T00:58:53.149Z,21.22
2018-08-17T01:01:22.054Z,21.15
2018-08-17T01:03:50.963Z,21.14
2018-08-17T01:06:19.869Z,21.15
2018-08-17T01:08:48.754Z,21.21
2018-08-17T01:11:17.663Z,21.22
2018-08-17T01:13:46.572Z,21.20
2018-08-17T01:16:15.441Z,21.14
2018-08-17T01:18:44.329Z,21.19
2018-08-17T01:21:14.283Z,21.20
2018-08-17T01:23:43.173Z,21.17
2018-08-17T01:26:12.072Z,21.18
2018-08-17T01:28:40.964Z,21.16
2018-08-17T01:31:09.910Z,21.14
2018-08-17T01:33:38.788Z,21.06
2018-08-17T01:36:07.712Z,21.02
2018-08-17T01:38:36.599Z,20.94
2018-08-17T01:41:05.630Z,20.79
2018-08-17T01:43:34.506Z,20.60
2018-08-17T01:46:03.394Z,20.53
2018-08-17T01:48:32.554Z,20.38
2018-08-17T01:51:01.436Z,20.44
2018-08-17T01:53:30.375Z,20.40
2018-08-17T01:55:59.872Z,20.22
2018-08-17T01:58:28.790Z,20.23
2018-08-17T02:00:57.638Z,20.03
2018-08-17T02:03:26.585Z,19.99
2018-08-17T02:05:55.548Z,20.04
2018-08-17T02:08:24.470Z,20.17
2018-08-17T02:10:53.363Z,19.95
2018-08-17T02:13:22.376Z,20.00
2018-08-17T02:15:51.300Z,20.00
2018-08-17T02:18:20.190Z,19.87
2018-08-17T02:20:49.128Z,19.96
2018-08-17T02:23:18.081Z,19.89
2018-08-17T02:25:47.053Z,19.90
2018-08-17T02:28:15.938Z,20.07
2018-08-17T02:30:44.887Z,19.99
2018-08-17T02:33:13.802Z,19.86
2018-08-17T02:35:42.730Z,19.83
2018-08-17T02:38:11.607Z,19.93
2018-08-17T02:40:40.497Z,19.93
2018-08-17T02:43:09.488Z,20.07
2018-08-17T02:45:38.372Z,20.03
2018-08-17T02:48:07.258Z,19.90
2018-08-17T02:50:36.209Z,20.01
2018-08-17T02:53:05.674Z,19.97
2018-08-17T02:55:36.068Z,19.85
2018-08-17T02:58:04.989Z,19.77
2018-08-17T03:00:33.847Z,19.78
2018-08-17T03:03:02.741Z,19.92
2018-08-17T03:05:31.638Z,19.89
2018-08-17T03:08:00.563Z,19.77
2018-08-17T03:10:29.442Z,20.03
2018-08-17T03:12:58.321Z,19.98
2018-08-17T03:15:27.233Z,19.92
2018-08-17T03:17:56.169Z,19.87
2018-08-17T03:20:25.080Z,19.87
2018-08-17T03:22:53.980Z,19.79
2018-08-17T03:25:22.891Z,19.96
2018-08-17T03:27:51.773Z,19.88
2018-08-17T03:30:21.682Z,19.89
2018-08-17T03:32:50.550Z,19.98
2018-08-17T03:35:19.445Z,19.96
2018-08-17T03:37:48.339Z,19.92
2018-08-17T03:40:17.302Z,19.93
2018-08-17T03:42:46.190Z,19.73
2018-08-17T03:45:15.074Z,19.74
2018-08-17T03:47:43.999Z,19.74
2018-08-17T03:50:12.920Z,19.78
2018-08-17T03:52:41.807Z,19.90
2018-08-17T03:55:10.685Z,19.79
2018-08-17T03:57:39.566Z,19.96
2018-08-17T04:00:08.503Z,19.88
2018-08-17T04:02:37.508Z,19.86
2018-08-17T04:05:06.413Z,19.70
2018-08-17T04:07:35.361Z,19.74
2018-08-17T04:10:04.609Z,19.72
2018-08-17T04:12:33.474Z,19.39
2018-08-17T04:15:02.385Z,19.44
2018-08-17T04:17:31.272Z,19.52
2018-08-17T04:20:00.195Z,19.50
2018-08-17T04:22:29.063Z,19.73
2018-08-17T04:24:57.950Z,19.65
2018-08-17T04:27:26.857Z,19.60
2018-08-17T04:29:55.744Z,19.63
2018-08-17T04:32:24.668Z,19.73
2018-08-17T04:34:53.670Z,19.90
2018-08-17T04:37:22.676Z,19.85
2018-08-17T04:39:51.550Z,19.76
2018-08-17T04:42:20.433Z,19.77
2018-08-17T04:44:49.352Z,19.77
2018-08-17T04:47:18.237Z,19.91
2018-08-17T04:49:47.267Z,19.93
2018-08-17T04:52:16.195Z,19.94
2018-08-17T04:54:45.188Z,19.93
2018-08-17T04:57:14.164Z,19.88
2018-08-17T04:59:43.057Z,19.86
2018-08-17T05:02:13.010Z,19.90
2018-08-17T05:04:41.893Z,19.69
2018-08-17T05:07:11.455Z,19.73
2018-08-17T05:09:40.429Z,19.52
2018-08-17T05:12:10.533Z,19.62
2018-08-17T05:14:39.548Z,19.43
2018-08-17T05:17:08.442Z,19.35
2018-08-17T05:19:37.377Z,19.30
2018-08-17T05:22:06.273Z,18.95
2018-08-17T05:24:35.278Z,18.95
2018-08-17T05:27:04.218Z,18.83
2018-08-17T05:29:33.185Z,18.57
2018-08-17T05:32:02.129Z,18.47
2018-08-17T05:34:31.049Z,18.66
2018-08-17T05:37:00.053Z,18.86
2018-08-17T05:39:28.951Z,18.97
2018-08-17T05:41:57.833Z,18.95
2018-08-17T05:44:27.734Z,18.73
2018-08-17T05:46:56.634Z,18.61
2018-08-17T05:49:25.621Z,18.75
2018-08-17T05:51:54.583Z,18.81
2018-08-17T05:54:23.462Z,18.69
2018-08-17T05:56:52.407Z,18.74
2018-08-17T05:59:21.293Z,18.76
2018-08-17T06:01:50.197Z,18.77
2018-08-17T06:04:19.103Z,18.75
2018-08-17T06:06:48.011Z,18.76
2018-08-17T06:09:16.973Z,18.74
2018-08-17T06:11:45.882Z,18.82
2018-08-17T06:14:14.743Z,18.78
2018-08-17T06:16:43.643Z,18.59
2018-08-17T06:19:12.658Z,18.46
2018-08-17T06:21:41.613Z,18.64
2018-08-17T06:24:11.351Z,18.59
2018-08-17T06:26:40.254Z,18.78
2018-08-17T06:29:09.123Z,18.81
2018-08-17T06:31:38.135Z,18.57
2018-08-17T06:34:06.982Z,18.60
2018-08-17T06:36:35.898Z,18.33
2018-08-17T06:39:07.299Z,18.50
2018-08-17T06:41:36.218Z,18.49
2018-08-17T06:44:05.144Z,18.48
2018-08-17T06:46:34.164Z,18.49
2018-08-17T06:49:03.053Z,18.57
2018-08-17T06:51:32.006Z,18.52
2018-08-17T06:54:00.939Z,18.32
2018-08-17T06:56:29.853Z,18.14
2018-08-17T06:58:58.724Z,18.10
2018-08-17T07:01:27.635Z,18.15
2018-08-17T07:03:56.572Z,18.28
2018-08-17T07:06:25.493Z,18.10
2018-08-17T07:08:54.859Z,18.31
2018-08-17T07:11:24.770Z,18.21
2018-08-17T07:13:54.279Z,18.30
2018-08-17T07:16:23.325Z,18.25
2018-08-17T07:18:52.209Z,18.38
2018-08-17T07:21:21.099Z,18.51
2018-08-17T07:23:49.974Z,18.63
2018-08-17T07:26:18.878Z,18.56
2018-08-17T07:28:47.790Z,18.58
2018-08-17T07:31:16.674Z,18.62
2018-08-17T07:33:45.561Z,18.72
2018-08-17T07:36:14.498Z,18.82
2018-08-17T07:38:43.428Z,18.78
2018-08-17T07:41:12.330Z,18.87
2018-08-17T07:43:41.248Z,18.80
2018-08-17T07:46:10.811Z,18.96
2018-08-17T07:48:39.884Z,18.98
2018-08-17T07:51:08.981Z,18.98
2018-08-17T07:53:37.919Z,18.83
2018-08-17T07:56:06.903Z,18.96
2018-08-17T07:58:35.831Z,18.83
2018-08-17T08:01:04.744Z,18.88
2018-08-17T08:03:33.752Z,18.98
2018-08-17T08:06:02.683Z,18.98
2018-08-17T08:08:31.604Z,18.91
2018-08-17T08:11:00.603Z,19.15
2018-08-17T08:13:29.613Z,19.12
2018-08-17T08:15:58.490Z,19.16
2018-08-17T08:18:27.345Z,18.99
2018-08-17T08:20:56.260Z,19.00
2018-08-17T08:23:27.063Z,19.04
2018-08-17T08:25:56.408Z,19.20
2018-08-17T08:28:25.304Z,19.20
2018-08-17T08:30:54.217Z,19.21
2018-08-17T08:33:23.287Z,19.20
2018-08-17T08:35:52.189Z,19.10
2018-08-17T08:38:21.109Z,19.17
2018-08-17T08:40:50.031Z,18.98
2018-08-17T08:43:18.943Z,18.88
2018-08-17T08:45:47.903Z,19.00
2018-08-17T08:48:16.739Z,18.98
2018-08-17T08:50:45.658Z,18.95
2018-08-17T08:53:14.526Z,18.92
2018-08-17T08:55:43.420Z,18.90
2018-08-17T08:58:12.353Z,18.75
2018-08-17T09:00:41.226Z,18.83
2018-08-17T09:03:10.256Z,18.84
2018-08-17T09:05:39.172Z,19.00
2018-08-17T09:08:08.122Z,19.07
2018-08-17T09:10:36.962Z,19.04
2018-08-17T09:13:06.092Z,18.84
2018-08-17T09:15:34.983Z,18.86
2018-08-17T09:18:03.865Z,18.72
2018-08-17T09:20:32.850Z,18.88
2018-08-17T09:23:02.732Z,18.95
2018-08-17T09:25:31.668Z,18.95
2018-08-17T09:28:00.575Z,18.80
2018-08-17T09:30:29.473Z,18.95
2018-08-17T09:32:58.382Z,18.97
2018-08-17T09:35:27.249Z,19.03
2018-08-17T09:37:56.199Z,18.80
2018-08-17T09:40:25.137Z,18.71
2018-08-17T09:42:54.093Z,18.80
2018-08-17T09:45:22.974Z,18.94
2018-08-17T09:47:52.925Z,18.87
2018-08-17T09:50:21.810Z,18.82
2018-08-17T09:52:50.736Z,19.13
2018-08-17T09:55:19.611Z,19.22
2018-08-17T09:57:48.526Z,19.27
2018-08-17T10:00:17.439Z,19.47
2018-08-17T10:02:51.543Z,19.11
2018-08-17T10:05:25.678Z,19.24
2018-08-17T10:07:59.820Z,19.15
2018-08-17T10:10:28.716Z,19.04
2018-08-17T10:12:57.681Z,19.18
2018-08-17T10:15:26.648Z,19.02
2018-08-17T10:17:55.584Z,18.89
2018-08-17T10:20:24.811Z,19.11
2018-08-17T10:22:53.676Z,19.23
2018-08-17T10:25:24.834Z,19.41
2018-08-17T10:27:57.071Z,19.36
2018-08-17T10:30:26.121Z,19.38
2018-08-17T10:32:57.312Z,19.51
2018-08-17T10:35:32.549Z,19.36
2018-08-17T10:38:05.644Z,19.24
2018-08-17T10:40:34.633Z,19.18
2018-08-17T10:43:04.782Z,19.22
2018-08-17T10:45:33.989Z,19.10
2018-08-17T10:48:02.946Z,19.10
2018-08-17T10:50:32.957Z,19.08
2018-08-17T10:53:02.990Z,19.16
2018-08-17T10:55:41.072Z,19.06
2018-08-17T10:58:11.802Z,18.84
2018-08-17T11:00:40.706Z,18.99
2018-08-17T11:03:09.685Z,19.11
2018-08-17T11:05:38.591Z,18.97
2018-08-17T11:08:07.580Z,18.98
2018-08-17T11:10:36.553Z,19.12
2018-08-17T11:13:05.519Z,19.17
2018-08-17T11:15:34.393Z,18.98
2018-08-17T11:18:03.273Z,19.18
2018-08-17T11:20:32.237Z,19.22
2018-08-17T11:23:02.170Z,19.22
2018-08-17T11:25:31.093Z,19.17
2018-08-17T11:27:59.941Z,19.22
2018-08-17T11:30:28.849Z,19.33
2018-08-17T11:32:57.767Z,19.50
2018-08-17T11:35:26.630Z,19.39
2018-08-17T11:37:55.527Z,19.61
2018-08-17T11:40:24.469Z,19.76
2018-08-17T11:42:53.357Z,19.73
2018-08-17T11:45:25.322Z,19.81
2018-08-17T11:47:54.870Z,19.69
2018-08-17T11:50:24.829Z,19.42
2018-08-17T11:52:54.823Z,19.79
2018-08-17T11:55:24.595Z,19.87
2018-08-17T11:57:53.694Z,19.84
2018-08-17T12:00:22.592Z,19.95
2018-08-17T12:02:51.486Z,20.08
2018-08-17T12:05:20.364Z,20.12
2018-08-17T12:07:49.561Z,20.32
2018-08-17T12:10:18.491Z,19.93
2018-08-17T12:12:47.487Z,20.09
2018-08-17T12:15:16.740Z,19.92
2018-08-17T12:17:45.652Z,20.24
2018-08-17T12:20:14.563Z,20.34
2018-08-17T12:22:43.527Z,20.39
2018-08-17T12:25:12.540Z,20.41
2018-08-17T12:27:46.497Z,20.57
2018-08-17T12:30:15.393Z,20.57
2018-08-17T12:32:44.331Z,20.37
2018-08-17T12:35:13.219Z,20.33
2018-08-17T12:37:42.154Z,20.49
2018-08-17T12:40:11.108Z,20.74
2018-08-17T12:42:39.981Z,20.81
2018-08-17T12:45:14.083Z,20.88
2018-08-17T12:47:42.973Z,20.86
2018-08-17T12:50:11.975Z,20.71
2018-08-17T12:52:40.842Z,20.78
2018-08-17T12:55:09.723Z,20.76
2018-08-17T12:57:42.173Z,21.00
2018-08-17T13:00:12.059Z,21.33
2018-08-17T13:02:41.094Z,21.27
2018-08-17T13:05:09.984Z,21.37
2018-08-17T13:07:38.944Z,21.38
2018-08-17T13:10:07.799Z,21.46
2018-08-17T13:12:36.690Z,21.54
2018-08-17T13:15:05.670Z,21.88
2018-08-17T13:17:39.698Z,21.62
2018-08-17T13:20:08.620Z,21.63
2018-08-17T13:22:37.507Z,21.71
2018-08-17T13:25:06.479Z,21.90
2018-08-17T13:27:35.435Z,21.77
2018-08-17T13:30:05.273Z,21.76
2018-08-17T13:32:34.241Z,21.79
2018-08-17T13:35:03.208Z,22.00
2018-08-17T13:37:32.171Z,21.63
2018-08-17T13:40:01.326Z,21.66
2018-08-17T13:42:30.104Z,21.93
2018-08-17T13:44:59.028Z,21.86
2018-08-17T13:47:27.939Z,21.47
2018-08-17T13:49:56.860Z,21.35
2018-08-17T13:52:25.805Z,21.33
2018-08-17T13:54:54.685Z,21.61
2018-08-17T13:57:23.617Z,21.57
2018-08-17T13:59:52.520Z,21.56
2018-08-17T14:02:21.413Z,21.89
2018-08-17T14:04:50.382Z,22.02
2018-08-17T14:07:19.293Z,22.09
2018-08-17T14:09:48.225Z,22.19
2018-08-17T14:12:17.193Z,22.22
2018-08-17T14:14:46.106Z,22.18
2018-08-17T14:17:15.000Z,22.33
2018-08-17T14:19:43.897Z,22.35
2018-08-17T14:22:12.803Z,22.42
2018-08-17T14:24:41.726Z,22.44
2018-08-17T14:27:10.583Z,22.52
2018-08-17T14:29:39.608Z,22.62
2018-08-17T14:32:08.507Z,22.60
2018-08-17T14:34:37.441Z,22.81
2018-08-17T14:37:06.339Z,22.89
2018-08-17T14:39:35.359Z,23.00
2018-08-17T14:42:04.286Z,23.19
2018-08-17T14:44:33.208Z,23.07
2018-08-17T14:47:02.146Z,23.08
2018-08-17T14:49:31.013Z,23.22
2018-08-17T14:51:59.970Z,23.08
2018-08-17T14:54:28.879Z,23.06
2018-08-17T14:56:57.766Z,22.91
2018-08-17T14:59:26.707Z,22.91
2018-08-17T15:01:55.724Z,22.99
2018-08-17T15:04:24.619Z,22.95
2018-08-17T15:06:53.547Z,22.79
2018-08-17T15:09:22.409Z,22.97
2018-08-17T15:11:51.304Z,22.90
2018-08-17T15:14:20.205Z,22.96
2018-08-17T15:16:49.071Z,23.00
2018-08-17T15:19:17.971Z,23.13
2018-08-17T15:21:46.966Z,22.98
2018-08-17T15:24:15.857Z,23.03
2018-08-17T15:26:44.782Z,22.91
2018-08-17T15:29:13.709Z,23.00
2018-08-17T15:31:42.604Z,23.14
2018-08-17T15:34:11.492Z,23.07
2018-08-17T15:36:40.369Z,22.94
2018-08-17T15:39:09.337Z,23.03
2018-08-17T15:41:41.942Z,22.99
2018-08-17T15:44:29.302Z,23.01
2018-08-17T15:46:58.756Z,22.99
2018-08-17T15:49:35.428Z,22.94
2018-08-17T15:52:05.527Z,22.89
2018-08-17T15:54:34.531Z,23.02
2018-08-17T15:57:03.537Z,23.09
2018-08-17T15:59:32.526Z,23.08
2018-08-17T16:02:01.521Z,23.02
2018-08-17T16:04:30.600Z,23.10
2018-08-17T16:06:59.615Z,22.94
2018-08-17T16:09:28.608Z,22.89
2018-08-17T16:11:57.561Z,23.07
2018-08-17T16:14:26.551Z,23.05
2018-08-17T16:16:55.457Z,23.08
2018-08-17T16:19:24.445Z,23.05
2018-08-17T16:21:53.351Z,22.96
2018-08-17T16:24:22.304Z,22.94
2018-08-17T16:26:51.229Z,23.03
2018-08-17T16:29:20.220Z,23.09
2018-08-17T16:31:49.144Z,22.89
2018-08-17T16:34:18.046Z,22.82
2018-08-17T16:36:46.923Z,22.78
2018-08-17T16:39:16.985Z,22.85
2018-08-17T16:41:45.962Z,22.83
2018-08-17T16:44:15.203Z,22.81
2018-08-17T16:46:44.397Z,22.70
2018-08-17T16:49:13.294Z,22.70
2018-08-17T16:54:10.019Z,22.66
2018-08-17T16:56:38.922Z,22.64
2018-08-17T16:59:07.809Z,22.63
2018-08-17T17:01:36.677Z,22.66
2018-08-17T17:04:05.599Z,22.72
2018-08-17T17:06:34.554Z,22.84
2018-08-17T17:09:06.383Z,22.79
2018-08-17T17:11:35.381Z,22.74
2018-08-17T17:14:04.401Z,22.71
2018-08-17T17:16:38.769Z,22.74
2018-08-17T17:19:13.733Z,22.67
2018-08-17T17:21:44.019Z,22.63
2018-08-17T17:24:12.939Z,22.59
2018-08-17T17:26:42.032Z,22.51
2018-08-17T17:29:11.027Z,22.50
2018-08-17T17:31:40.199Z,22.53
2018-08-17T17:34:09.501Z,22.45
2018-08-17T17:36:38.800Z,22.35
2018-08-17T17:39:09.890Z,22.37
2018-08-17T17:41:38.791Z,22.38
2018-08-17T17:44:08.025Z,22.29
2018-08-17T17:46:37.085Z,22.26
2018-08-17T17:49:06.005Z,22.22
2018-08-17T17:51:34.915Z,22.20
2018-08-17T17:54:03.855Z,22.19
2018-08-17T17:56:32.792Z,22.10
2018-08-17T17:59:05.841Z,22.08
2018-08-17T18:01:34.749Z,22.11
2018-08-17T18:04:03.701Z,22.05
2018-08-17T18:06:32.665Z,21.94
2018-08-17T18:09:02.193Z,21.94
2018-08-17T18:11:31.062Z,21.87
2018-08-17T18:13:59.984Z,21.81
2018-08-17T18:16:28.949Z,21.79
2018-08-17T18:18:57.853Z,21.67
2018-08-17T18:21:31.124Z,21.76
2018-08-17T18:24:05.319Z,21.74
2018-08-17T18:26:34.332Z,21.67
2018-08-17T18:29:03.256Z,21.59
2018-08-17T18:31:32.188Z,21.47
2018-08-17T18:34:01.122Z,21.64
2018-08-17T18:36:30.011Z,21.74
2018-08-17T18:38:58.921Z,21.79
2018-08-17T18:41:27.848Z,21.82
2018-08-17T18:43:56.917Z,21.83
2018-08-17T18:46:25.936Z,21.80
2018-08-17T18:48:54.852Z,21.79
2018-08-17T18:51:23.713Z,21.53
2018-08-17T18:53:52.781Z,21.35
2018-08-17T18:56:21.677Z,21.17
2018-08-17T18:58:50.667Z,21.12
2018-08-17T19:01:19.704Z,20.99
2018-08-17T19:03:48.585Z,20.97
2018-08-17T19:06:17.486Z,20.83
2018-08-17T19:08:47.021Z,20.75
2018-08-17T19:11:15.964Z,20.62
2018-08-17T19:13:44.849Z,20.50
2018-08-17T19:16:13.773Z,20.46
2018-08-17T19:18:42.620Z,20.37
2018-08-17T19:21:12.762Z,20.40
2018-08-17T19:23:41.988Z,20.17
2018-08-17T19:26:11.832Z,20.21
2018-08-17T19:28:40.749Z,20.11
2018-08-17T19:31:09.672Z,20.05
2018-08-17T19:33:38.640Z,20.01
2018-08-17T19:36:07.543Z,20.00
2018-08-17T19:38:37.253Z,19.96
2018-08-17T19:41:06.155Z,19.85
2018-08-17T19:43:35.094Z,19.86
2018-08-17T19:46:04.016Z,19.84
2018-08-17T19:48:32.926Z,19.75
2018-08-17T19:51:01.928Z,19.80
2018-08-17T19:53:30.874Z,19.79
2018-08-17T19:55:59.774Z,19.66
2018-08-17T19:58:28.709Z,19.61
2018-08-17T20:00:57.619Z,19.66
2018-08-17T20:03:26.581Z,19.50
2018-08-17T20:05:55.482Z,19.62
2018-08-17T20:08:24.365Z,19.59
2018-08-17T20:10:53.256Z,19.51
2018-08-17T20:13:24.361Z,19.56
2018-08-17T20:15:53.282Z,19.40
2018-08-17T20:18:22.165Z,19.46
2018-08-17T20:20:51.096Z,19.50
2018-08-17T20:23:21.037Z,19.47
2018-08-17T20:25:50.049Z,19.23
2018-08-17T20:28:18.852Z,19.20
2018-08-17T20:30:47.788Z,19.26
2018-08-17T20:33:26.870Z,19.23
2018-08-17T20:35:56.182Z,19.19
2018-08-17T20:38:25.220Z,19.25
2018-08-17T20:40:58.117Z,19.24
2018-08-17T20:43:28.000Z,18.96
2018-08-17T20:45:57.294Z,18.99
2018-08-17T20:48:26.231Z,19.09
2018-08-17T20:50:55.125Z,19.06
2018-08-17T20:53:24.090Z,19.11
2018-08-17T20:55:52.987Z,19.12
2018-08-17T20:58:21.881Z,19.18
2018-08-17T21:00:50.764Z,19.11
2018-08-17T21:03:19.648Z,19.25
2018-08-17T21:05:48.536Z,19.13
2018-08-17T21:08:17.405Z,19.17
2018-08-17T21:10:46.349Z,19.29
2018-08-17T21:13:15.225Z,19.23
2018-08-17T21:15:45.163Z,19.23
2018-08-17T21:18:14.090Z,19.18
2018-08-17T21:20:42.970Z,19.19
2018-08-17T21:23:11.878Z,19.02
2018-08-17T21:25:40.770Z,19.03
2018-08-17T21:28:09.667Z,18.96
2018-08-17T21:30:38.551Z,18.98
2018-08-17T21:33:07.548Z,18.83
2018-08-17T21:35:36.461Z,18.91
2018-08-17T21:38:05.384Z,18.82
2018-08-17T21:40:34.292Z,18.72
2018-08-17T21:43:03.187Z,18.75
2018-08-17T21:45:32.145Z,18.73
2018-08-17T21:48:01.070Z,18.70
2018-08-17T21:50:29.998Z,18.71
2018-08-17T21:52:58.869Z,18.60
2018-08-17T21:55:27.765Z,18.54
2018-08-17T21:57:56.690Z,18.44
2018-08-17T22:00:31.738Z,18.55
2018-08-17T22:03:00.634Z,18.49
2018-08-17T22:05:30.887Z,18.47
2018-08-17T22:08:00.432Z,18.33
2018-08-17T22:10:30.876Z,18.31
2018-08-17T22:12:59.781Z,18.41
2018-08-17T22:15:29.965Z,18.40
2018-08-17T22:17:58.858Z,18.39
2018-08-17T22:20:27.793Z,18.26
2018-08-17T22:22:58.225Z,18.29
2018-08-17T22:25:27.123Z,18.28
2018-08-17T22:27:56.040Z,18.30
2018-08-17T22:30:26.067Z,18.26
2018-08-17T22:32:55.024Z,18.19
2018-08-17T22:35:24.000Z,18.13
2018-08-17T22:37:52.864Z,18.07
2018-08-17T22:40:21.741Z,18.03
2018-08-17T22:42:51.087Z,17.99
2018-08-17T22:45:20.009Z,17.98
2018-08-17T22:47:48.927Z,17.85
2018-08-17T22:50:17.868Z,17.80
2018-08-17T22:52:46.763Z,17.94
2018-08-17T22:55:15.757Z,17.88
2018-08-17T22:57:44.644Z,17.91
2018-08-17T23:00:24.424Z,17.90
2018-08-17T23:02:55.402Z,17.88
2018-08-17T23:05:25.844Z,17.85
2018-08-17T23:07:54.868Z,17.84
2018-08-17T23:10:24.950Z,17.78
2018-08-17T23:12:54.473Z,17.80
2018-08-17T23:15:23.446Z,17.69
2018-08-17T23:17:53.478Z,17.57
2018-08-17T23:20:28.015Z,17.50
2018-08-17T23:22:58.076Z,17.61
2018-08-17T23:25:27.111Z,17.59
2018-08-17T23:27:56.311Z,17.52
2018-08-17T23:30:25.257Z,17.45
2018-08-17T23:32:54.192Z,17.30
2018-08-17T23:35:23.091Z,17.22
2018-08-17T23:37:52.009Z,17.48
2018-08-17T23:40:21.017Z,17.33
2018-08-17T23:42:49.905Z,17.38
2018-08-17T23:45:19.166Z,17.40
2018-08-17T23:47:48.062Z,17.33
2018-08-17T23:50:17.345Z,17.37
2018-08-17T23:52:46.333Z,17.24
2018-08-17T23:55:16.707Z,17.32
2018-08-17T23:57:45.624Z,17.30
